createdAt,value
2023-09-23T00:02:17.073Z,20.73
2023-09-23T00:05:19.068Z,20.63
2023-09-23T00:08:23.348Z,20.53
2023-09-23T00:11:25.433Z,20.42
2023-09-23T00:14:27.355Z,20.32
2023-09-23T00:17:30.134Z,20.29
2023-09-23T00:20:32.395Z,20.27
2023-09-23T00:23:36.333Z,20.26
2023-09-23T00:26:38.276Z,20.19
2023-09-23T00:29:40.234Z,20.25
2023-09-23T00:32:43.517Z,20.31
2023-09-23T00:35:46.334Z,20.46
2023-09-23T00:38:50.266Z,20.42
2023-09-23T00:41:53.194Z,20.37
2023-09-23T00:44:55.073Z,20.25
2023-09-23T00:47:58.233Z,20.14
2023-09-23T00:51:01.207Z,20.14
2023-09-23T00:54:07.550Z,20.17
2023-09-23T00:57:09.558Z,20.24
2023-09-23T01:00:24.738Z,20.36
2023-09-23T01:03:28.550Z,20.38
2023-09-23T01:06:30.843Z,20.38
2023-09-23T01:09:34.739Z,20.34
2023-09-23T01:12:36.793Z,20.23
2023-09-23T01:15:41.948Z,20.16
2023-09-23T01:18:48.703Z,20.10
2023-09-23T01:21:51.004Z,20.07
2023-09-23T01:24:54.289Z,20.04
2023-09-23T01:27:56.898Z,20.00
2023-09-23T01:30:59.309Z,20.04
2023-09-23T01:34:02.638Z,20.06
2023-09-23T01:37:04.526Z,20.12
2023-09-23T01:40:09.972Z,20.17
2023-09-23T01:43:13.087Z,20.15
2023-09-23T01:46:15.065Z,20.17
2023-09-23T01:49:17.728Z,20.15
2023-09-23T01:52:19.658Z,20.17
2023-09-23T01:55:23.106Z,20.27
2023-09-23T01:58:25.874Z,20.35
2023-09-23T02:01:28.069Z,20.32
2023-09-23T02:04:31.172Z,20.30
2023-09-23T02:07:33.092Z,20.33
2023-09-23T02:10:36.426Z,20.44
2023-09-23T02:13:42.090Z,20.69
2023-09-23T02:16:44.228Z,20.80
2023-09-23T02:19:46.814Z,20.75
2023-09-23T02:22:50.180Z,20.79
2023-09-23T02:25:54.128Z,20.83
2023-09-23T02:28:56.146Z,20.78
2023-09-23T02:31:58.344Z,20.72
2023-09-23T02:35:00.616Z,20.70
2023-09-23T02:38:02.713Z,20.69
2023-09-23T02:41:06.684Z,20.74
2023-09-23T02:44:08.966Z,20.71
2023-09-23T02:47:11.665Z,20.72
2023-09-23T02:50:15.241Z,20.70
2023-09-23T02:53:18.771Z,20.82
2023-09-23T02:56:22.164Z,20.99
2023-09-23T02:59:27.724Z,21.15
2023-09-23T03:02:32.321Z,21.17
2023-09-23T03:05:40.134Z,21.23
2023-09-23T03:08:48.864Z,21.51
2023-09-23T03:11:56.828Z,21.73
2023-09-23T03:15:01.168Z,22.00
2023-09-23T03:18:04.009Z,21.98
2023-09-23T03:21:10.137Z,22.09
2023-09-23T03:24:12.526Z,22.17
2023-09-23T03:27:16.322Z,22.29
2023-09-23T03:30:18.860Z,22.23
2023-09-23T03:33:22.637Z,22.06
2023-09-23T03:36:26.702Z,22.00
2023-09-23T03:39:29.836Z,21.92
2023-09-23T03:42:33.830Z,21.81
2023-09-23T03:45:36.291Z,21.80
2023-09-23T03:48:38.873Z,21.75
2023-09-23T03:51:40.881Z,21.74
2023-09-23T03:54:42.744Z,21.72
2023-09-23T03:57:47.753Z,21.71
2023-09-23T04:00:50.688Z,21.74
2023-09-23T04:03:53.695Z,21.81
2023-09-23T04:06:56.842Z,21.75
2023-09-23T04:13:02.749Z,21.85
2023-09-23T04:16:06.798Z,21.81
2023-09-23T04:19:08.981Z,21.75
2023-09-23T04:22:12.427Z,21.71
2023-09-23T04:25:17.018Z,21.58
2023-09-23T04:28:20.791Z,21.67
2023-09-23T04:31:25.556Z,21.69
2023-09-23T04:34:27.538Z,21.67
2023-09-23T04:37:29.339Z,21.59
2023-09-23T04:40:31.491Z,21.47
2023-09-23T04:43:34.850Z,21.37
2023-09-23T04:46:37.177Z,21.31
2023-09-23T04:49:40.233Z,21.29
2023-09-23T04:52:43.912Z,21.29
2023-09-23T04:55:48.756Z,21.28
2023-09-23T04:58:53.520Z,21.28
2023-09-23T05:01:55.433Z,21.28
2023-09-23T05:04:57.524Z,21.27
2023-09-23T05:08:00.526Z,21.27
2023-09-23T05:11:03.567Z,21.29
2023-09-23T05:14:07.744Z,21.33
2023-09-23T05:17:11.476Z,21.35
2023-09-23T05:20:15.662Z,21.32
2023-09-23T05:23:18.390Z,21.33
2023-09-23T05:26:20.616Z,21.35
2023-09-23T05:29:24.704Z,21.34
2023-09-23T05:32:26.771Z,21.34
2023-09-23T05:35:29.255Z,21.31
2023-09-23T05:38:31.355Z,21.33
2023-09-23T05:41:33.335Z,21.33
2023-09-23T05:44:37.239Z,21.29
2023-09-23T05:47:39.207Z,21.27
2023-09-23T05:50:42.193Z,21.28
2023-09-23T05:53:44.280Z,21.24
2023-09-23T05:56:46.164Z,21.23
2023-09-23T05:59:49.548Z,21.22
2023-09-23T06:02:51.805Z,21.19
2023-09-23T06:05:54.098Z,21.13
2023-09-23T06:08:57.831Z,21.06
2023-09-23T06:12:00.087Z,20.96
2023-09-23T06:15:05.238Z,20.85
2023-09-23T06:18:08.276Z,20.73
2023-09-23T06:21:10.804Z,20.52
2023-09-23T06:24:12.762Z,20.37
2023-09-23T06:27:15.197Z,20.21
2023-09-23T06:30:19.418Z,20.12
2023-09-23T06:33:23.062Z,20.03
2023-09-23T06:36:24.833Z,19.96
2023-09-23T06:39:27.109Z,19.87
2023-09-23T06:42:28.969Z,19.82
2023-09-23T06:45:32.242Z,19.77
2023-09-23T06:48:34.898Z,19.78
2023-09-23T06:51:36.802Z,19.79
2023-09-23T06:54:39.299Z,19.89
2023-09-23T06:57:41.237Z,19.81
2023-09-23T07:00:45.484Z,19.78
2023-09-23T07:03:47.993Z,19.24
2023-09-23T07:06:50.175Z,18.99
2023-09-23T07:09:53.052Z,18.96
2023-09-23T07:12:55.357Z,19.01
2023-09-23T07:15:59.366Z,18.93
2023-09-23T07:19:04.449Z,18.64
2023-09-23T07:22:06.489Z,18.47
2023-09-23T07:25:09.072Z,18.48
2023-09-23T07:28:11.323Z,18.61
2023-09-23T07:31:15.308Z,18.74
2023-09-23T07:34:17.977Z,18.60
2023-09-23T07:37:19.981Z,18.56
2023-09-23T07:40:21.861Z,18.65
2023-09-23T07:43:24.024Z,18.55
2023-09-23T07:46:27.324Z,18.61
2023-09-23T07:49:29.906Z,18.46
2023-09-23T07:52:35.801Z,18.47
2023-09-23T07:55:38.562Z,18.36
2023-09-23T07:58:40.568Z,18.37
2023-09-23T08:01:44.372Z,18.23
2023-09-23T08:04:46.482Z,18.23
2023-09-23T08:12:06.140Z,18.29
2023-09-23T08:15:10.185Z,18.29
2023-09-23T08:18:14.114Z,18.47
2023-09-23T08:21:16.913Z,18.34
2023-09-23T08:24:18.857Z,18.56
2023-09-23T08:27:20.719Z,18.67
2023-09-23T08:30:23.330Z,18.71
2023-09-23T08:33:29.116Z,18.84
2023-09-23T08:36:31.222Z,18.88
2023-09-23T08:39:33.034Z,18.91
2023-09-23T08:42:35.918Z,18.95
2023-09-23T08:45:41.613Z,18.92
2023-09-23T08:48:45.499Z,19.06
2023-09-23T08:51:47.626Z,18.95
2023-09-23T08:54:51.234Z,19.03
2023-09-23T08:57:55.504Z,19.05
2023-09-23T09:00:57.411Z,19.15
2023-09-23T09:04:00.681Z,19.15
2023-09-23T09:07:02.696Z,19.43
2023-09-23T09:10:06.084Z,19.37
2023-09-23T09:13:08.743Z,19.56
2023-09-23T09:16:10.689Z,19.55
2023-09-23T09:19:14.158Z,19.64
2023-09-23T09:22:17.950Z,19.88
2023-09-23T09:25:22.293Z,20.07
2023-09-23T09:28:24.729Z,19.82
2023-09-23T09:31:33.984Z,19.47
2023-09-23T09:34:44.462Z,19.57
2023-09-23T09:37:49.255Z,19.51
2023-09-23T09:40:53.076Z,19.59
2023-09-23T09:43:55.327Z,19.67
2023-09-23T09:46:58.428Z,19.92
2023-09-23T09:50:04.863Z,20.04
2023-09-23T09:53:09.964Z,20.07
2023-09-23T09:56:13.005Z,20.19
2023-09-23T09:59:24.203Z,20.05
2023-09-23T10:02:28.318Z,20.04
2023-09-23T10:05:36.200Z,20.13
2023-09-23T10:08:39.885Z,19.94
2023-09-23T10:11:42.566Z,20.02
2023-09-23T10:14:53.924Z,20.01
2023-09-23T10:17:58.609Z,20.08
2023-09-23T10:21:03.506Z,20.49
2023-09-23T10:24:09.538Z,20.71
2023-09-23T10:27:11.845Z,20.45
2023-09-23T10:30:23.436Z,20.97
2023-09-23T10:33:27.489Z,21.25
2023-09-23T10:36:30.756Z,20.97
2023-09-23T10:39:33.899Z,21.25
2023-09-23T10:42:36.083Z,21.02
2023-09-23T10:45:38.250Z,21.37
2023-09-23T10:48:41.521Z,21.09
2023-09-23T10:51:45.940Z,20.59
2023-09-23T10:54:49.012Z,20.24
2023-09-23T10:57:52.359Z,19.93
2023-09-23T11:00:56.881Z,20.12
2023-09-23T11:03:59.757Z,19.86
2023-09-23T11:07:03.969Z,19.83
2023-09-23T11:10:07.093Z,20.08
2023-09-23T11:13:11.548Z,20.09
2023-09-23T11:16:13.622Z,19.88
2023-09-23T11:19:18.648Z,19.84
2023-09-23T11:22:25.611Z,19.77
2023-09-23T11:25:28.602Z,19.44
2023-09-23T11:28:31.248Z,19.45
2023-09-23T11:31:33.500Z,19.51
2023-09-23T11:34:37.028Z,19.59
2023-09-23T11:37:40.337Z,19.64
2023-09-23T11:40:43.087Z,19.20
2023-09-23T11:43:45.759Z,19.23
2023-09-23T11:46:48.607Z,19.29
2023-09-23T11:49:52.265Z,19.07
2023-09-23T11:52:55.625Z,19.04
2023-09-23T11:55:57.537Z,18.87
2023-09-23T11:59:08.245Z,18.91
2023-09-23T12:02:12.269Z,19.09
2023-09-23T12:05:14.476Z,18.84
2023-09-23T12:08:17.959Z,18.75
2023-09-23T12:11:22.757Z,18.70
2023-09-23T12:14:25.262Z,18.61
2023-09-23T12:17:27.382Z,18.45
2023-09-23T12:20:30.007Z,18.33
2023-09-23T12:23:38.342Z,18.19
2023-09-23T12:26:40.323Z,18.23
2023-09-23T12:29:42.673Z,18.13
2023-09-23T12:32:46.015Z,18.31
2023-09-23T12:35:48.448Z,18.24
2023-09-23T12:38:51.832Z,18.02
2023-09-23T12:41:53.766Z,18.11
2023-09-23T12:44:55.610Z,18.08
2023-09-23T12:47:58.362Z,17.99
2023-09-23T12:51:01.267Z,17.96
2023-09-23T12:54:04.904Z,18.07
2023-09-23T12:57:06.755Z,17.99
2023-09-23T13:00:10.133Z,18.00
2023-09-23T13:03:12.522Z,17.92
2023-09-23T13:06:15.162Z,17.96
2023-09-23T13:09:19.655Z,18.00
2023-09-23T13:12:22.531Z,17.88
2023-09-23T13:15:24.861Z,17.83
2023-09-23T13:18:27.093Z,18.12
2023-09-23T13:21:29.368Z,18.05
2023-09-23T13:24:34.298Z,18.11
2023-09-23T13:27:37.456Z,18.09
2023-09-23T13:30:39.937Z,18.14
2023-09-23T13:33:42.855Z,18.05
2023-09-23T13:36:45.165Z,18.02
2023-09-23T13:39:49.417Z,17.87
2023-09-23T13:42:52.123Z,17.75
2023-09-23T13:45:54.958Z,17.53
2023-09-23T13:48:57.408Z,17.43
2023-09-23T13:51:59.541Z,17.34
2023-09-23T13:55:06.210Z,17.42
2023-09-23T13:58:08.631Z,17.49
2023-09-23T14:01:12.297Z,17.62
2023-09-23T14:04:15.295Z,17.78
2023-09-23T14:07:18.025Z,17.71
2023-09-23T14:10:22.739Z,17.74
2023-09-23T14:13:25.375Z,17.76
2023-09-23T14:16:27.807Z,17.70
2023-09-23T14:19:30.519Z,17.68
2023-09-23T14:22:33.831Z,17.68
2023-09-23T14:25:38.441Z,17.69
2023-09-23T14:28:43.974Z,17.57
2023-09-23T14:31:46.771Z,17.45
2023-09-23T14:34:48.972Z,17.43
2023-09-23T14:37:51.678Z,17.43
2023-09-23T14:40:55.366Z,17.47
2023-09-23T14:43:57.637Z,17.55
2023-09-23T14:47:00.138Z,17.59
2023-09-23T14:50:03.364Z,17.48
2023-09-23T14:53:05.993Z,17.51
2023-09-23T14:56:09.859Z,17.52
2023-09-23T14:59:12.153Z,17.55
2023-09-23T15:02:14.333Z,17.64
2023-09-23T15:05:18.408Z,17.55
2023-09-23T15:08:20.833Z,17.40
2023-09-23T15:11:27.385Z,17.46
2023-09-23T15:14:30.548Z,17.46
2023-09-23T15:17:33.068Z,17.57
2023-09-23T15:20:38.666Z,17.52
2023-09-23T15:23:42.468Z,17.40
2023-09-23T15:26:48.537Z,17.32
2023-09-23T15:29:51.273Z,17.33
2023-09-23T15:32:54.165Z,17.31
2023-09-23T15:35:57.242Z,17.24
2023-09-23T15:39:00.552Z,17.29
2023-09-23T15:42:04.964Z,17.30
2023-09-23T15:45:08.464Z,17.19
2023-09-23T15:48:11.001Z,17.17
2023-09-23T15:51:20.990Z,17.19
2023-09-23T15:54:23.486Z,17.14
2023-09-23T15:57:27.205Z,17.13
2023-09-23T16:00:31.070Z,16.96
2023-09-23T16:03:33.589Z,17.03
2023-09-23T16:06:36.882Z,16.99
2023-09-23T16:09:39.029Z,16.96
2023-09-23T16:12:43.153Z,16.98
2023-09-23T16:15:46.290Z,16.97
2023-09-23T16:18:48.856Z,17.05
2023-09-23T16:21:52.881Z,16.94
2023-09-23T16:24:55.503Z,16.99
2023-09-23T16:28:00.706Z,16.89
2023-09-23T16:31:03.245Z,16.85
2023-09-23T16:34:06.160Z,16.89
2023-09-23T16:37:09.186Z,16.89
2023-09-23T16:40:13.045Z,16.89
2023-09-23T16:43:16.544Z,16.86
2023-09-23T16:46:18.857Z,16.85
2023-09-23T16:49:21.530Z,16.81
2023-09-23T16:52:24.767Z,16.82
2023-09-23T16:55:28.896Z,16.71
2023-09-23T16:58:33.404Z,16.71
2023-09-23T17:01:36.858Z,16.75
2023-09-23T17:04:43.372Z,16.71
2023-09-23T17:07:46.122Z,16.75
2023-09-23T17:10:49.745Z,16.79
2023-09-23T17:13:53.851Z,16.76
2023-09-23T17:16:57.105Z,16.79
2023-09-23T17:19:59.836Z,16.73
2023-09-23T17:23:03.985Z,16.81
2023-09-23T17:26:06.885Z,16.78
2023-09-23T17:29:11.555Z,16.70
2023-09-23T17:32:13.914Z,16.76
2023-09-23T17:35:18.772Z,16.64
2023-09-23T17:38:21.560Z,16.55
2023-09-23T17:41:24.011Z,16.38
2023-09-23T17:44:28.099Z,16.28
2023-09-23T17:47:32.129Z,16.34
2023-09-23T17:50:37.411Z,16.31
2023-09-23T17:53:41.042Z,16.27
2023-09-23T17:56:43.642Z,16.29
2023-09-23T17:59:49.723Z,16.28
2023-09-23T18:02:53.603Z,16.23
2023-09-23T18:05:57.610Z,16.17
2023-09-23T18:09:01.450Z,16.16
2023-09-23T18:12:07.089Z,16.10
2023-09-23T18:15:14.495Z,16.08
2023-09-23T18:18:18.323Z,15.96
2023-09-23T18:21:22.954Z,16.03
2023-09-23T18:24:25.940Z,16.01
2023-09-23T18:27:31.481Z,15.93
2023-09-23T18:30:35.953Z,15.90
2023-09-23T18:33:41.269Z,15.96
2023-09-23T18:36:43.724Z,15.99
2023-09-23T18:39:46.800Z,15.95
2023-09-23T18:42:50.685Z,15.83
2023-09-23T18:45:58.698Z,15.86
2023-09-23T18:49:03.111Z,15.83
2023-09-23T18:52:07.711Z,15.88
2023-09-23T18:55:12.959Z,15.86
2023-09-23T18:58:15.944Z,15.86
2023-09-23T19:01:23.633Z,15.82
2023-09-23T19:04:30.924Z,15.79
2023-09-23T19:07:35.070Z,15.91
2023-09-23T19:10:38.953Z,15.91
2023-09-23T19:13:43.665Z,15.91
2023-09-23T19:16:49.897Z,15.90
2023-09-23T19:19:54.997Z,15.89
2023-09-23T19:22:57.485Z,15.86
2023-09-23T19:26:03.657Z,15.90
2023-09-23T19:29:08.170Z,15.97
2023-09-23T19:32:15.160Z,15.96
2023-09-23T19:35:18.895Z,16.02
2023-09-23T19:38:22.672Z,16.03
2023-09-23T19:41:26.105Z,16.02
2023-09-23T19:44:30.204Z,16.05
2023-09-23T19:47:38.173Z,15.95
2023-09-23T19:50:44.020Z,15.90
2023-09-23T19:53:47.651Z,15.82
2023-09-23T19:56:51.126Z,15.78
2023-09-23T19:59:53.900Z,15.76
2023-09-23T20:02:58.154Z,15.91
2023-09-23T20:06:04.585Z,16.23
2023-09-23T20:09:07.849Z,16.50
2023-09-23T20:12:12.231Z,16.65
2023-09-23T20:15:16.450Z,16.74
2023-09-23T20:18:20.620Z,16.82
2023-09-23T20:21:23.724Z,16.86
2023-09-23T20:24:28.915Z,16.91
2023-09-23T20:27:34.516Z,16.86
2023-09-23T20:30:37.796Z,16.82
2023-09-23T20:33:44.162Z,16.70
2023-09-23T20:36:46.845Z,16.68
2023-09-23T20:39:52.537Z,16.77
2023-09-23T20:42:59.240Z,16.88
2023-09-23T20:46:02.527Z,16.89
2023-09-23T20:49:07.386Z,16.92
2023-09-23T20:52:10.466Z,16.90
2023-09-23T20:55:14.062Z,16.87
2023-09-23T20:58:16.348Z,16.91
2023-09-23T21:01:19.450Z,16.89
2023-09-23T21:04:22.929Z,16.90
2023-09-23T21:07:25.093Z,16.89
2023-09-23T21:10:26.926Z,16.89
2023-09-23T21:13:28.922Z,16.87
2023-09-23T21:16:31.745Z,16.84
2023-09-23T21:19:34.967Z,16.85
2023-09-23T21:22:37.037Z,16.82
2023-09-23T21:25:38.846Z,16.81
2023-09-23T21:28:40.839Z,16.78
2023-09-23T21:31:42.927Z,16.79
2023-09-23T21:34:46.237Z,16.79
2023-09-23T21:37:48.958Z,16.81
2023-09-23T21:40:50.969Z,16.80
2023-09-23T21:43:53.041Z,16.77
2023-09-23T21:46:54.990Z,16.79
2023-09-23T21:49:59.600Z,16.81
2023-09-23T21:53:01.478Z,16.77
2023-09-23T21:56:03.611Z,16.79
2023-09-23T21:59:06.074Z,16.76
2023-09-23T22:02:09.510Z,16.78
2023-09-23T22:05:13.488Z,16.80
2023-09-23T22:08:15.783Z,16.77
2023-09-23T22:11:19.174Z,16.75
2023-09-23T22:14:21.174Z,16.78
2023-09-23T22:17:27.003Z,16.72
2023-09-23T22:20:30.580Z,16.70
2023-09-23T22:23:32.738Z,16.69
2023-09-23T22:26:36.947Z,16.68
2023-09-23T22:29:40.261Z,16.65
2023-09-23T22:32:43.141Z,16.63
2023-09-23T22:35:48.624Z,16.66
2023-09-23T22:38:50.957Z,16.65
2023-09-23T22:41:53.767Z,16.62
2023-09-23T22:44:55.772Z,16.63
2023-09-23T22:48:00.606Z,16.66
2023-09-23T22:51:05.274Z,16.66
2023-09-23T22:54:07.282Z,16.65
2023-09-23T22:57:12.011Z,16.64
2023-09-23T23:00:15.983Z,16.66
2023-09-23T23:03:20.214Z,16.66
2023-09-23T23:06:23.795Z,16.68
2023-09-23T23:09:27.819Z,16.69
2023-09-23T23:12:30.235Z,16.66
2023-09-23T23:15:32.879Z,16.73
2023-09-23T23:18:35.250Z,16.71
2023-09-23T23:21:38.992Z,16.73
2023-09-23T23:24:41.540Z,16.79
2023-09-23T23:27:44.270Z,16.75
2023-09-23T23:30:46.722Z,16.84
2023-09-23T23:33:49.030Z,16.82
2023-09-23T23:36:53.020Z,16.76
2023-09-23T23:39:54.897Z,16.74
2023-09-23T23:42:56.764Z,16.73
2023-09-23T23:46:00.120Z,16.67
2023-09-23T23:49:02.058Z,16.66
2023-09-23T23:52:08.285Z,16.63
2023-09-23T23:55:10.566Z,16.60
2023-09-23T23:58:14.069Z,16.57
